Airfield :
LOGIN :

Register | Disclaimer

   EN    FR    IT 

 










Legend :    VFR   Marginal VFR   IFR   Intensive IFR   Very Intensive IFR
Visi :
Ceiling :
>= 8 km
>= 3000ft
5 to 8 km
1000 to 3000 ft
1500m to 5 km
500 to 1000 ft
800 to 1500m
200 to 500 ft
< 800m
< 200 ft
Symbols :   Thunderstorms  Fog  Heavy snow  Heavy precipitations  Wind > 20 kt
SIGMETs :     Misc.  Thunderstorms  Icing  Turbulence  Mountain Waves  Volcanic Ashes






- Airport Elevation : 302 ft
- IATA code : MAH


LEMH - Menorca

CURRENT METAR :
  • 030800Z 09008KT 040V120 CAVOK 27/18 Q1017

EXPIRED METARs :
  • 030730Z 08009KT 050V110 CAVOK 26/20 Q1017
  • 030700Z 08010KT 050V120 CAVOK 25/20 Q1017
  • 030630Z 07009KT 9999 FEW015 25/20 Q1017
  • 030600Z 08007KT 9999 FEW015 24/21 Q1017
  • 030530Z 08007KT 030V110 9999 FEW015 23/21 Q1017

TAF TAF LEMH
Valid from the 03 at 03:00 until the 04 at 03:00 UTC


030200Z 0303/0403 05010KT 9999 FEW016 TX31/0312Z TN21/0306Z
PROB30
TEMPO 0322/0403 2000 BR



MET'MAP, your aeronautical weather chart ! - Copyright ORBIFLY December 2007 - Disclaimer

ORBIFLY MET'MAP TEAM :

Programming & Development : Alexandra Zaïnal
Original concept : Baudouin d'Aumeries
Technical & hardware support : Manuel Goepfert
Assistance : Marc-Olivier Méhu




SOURCES & CREDITS :

   NOAA